Terminal Aerodrome Forecast
Issued by NWS

Home | Current Version | Previous Version | Text Only | Print | Product List | Glossary On
Versions: 1 2 3 4 5 6 7 8 9 10 11 12
000
FTUS45 KRIW 260500
TAFJAC
TAF
KJAC 260539Z 2606/2706 VRB06KT P6SM VCSH SCT035 BKN060
     FM260800 36005KT P6SM VCFG SCT004 SCT080
     FM261600 19007KT P6SM VCSH SCT040 BKN070
     FM262000 VRB10G18KT P6SM VCTS SCT040 BKN070CB
     FM270200 21008KT P6SM VCSH SCT060 BKN090
      AMD LTD TO CLD VIS AND WIND=

USA.gov is the U.S. government's official web portal to all federal, state and local government web resources and services.